Bintulu Airport Bintulu MY
ICAO: WBGB
IATA:
Category: Medium
Scheduled Services:

Elevation: 74 ft
TransAlt. 11000 ft.

Airport Communications:
ATIS:127.8
GND:121.8
TWR:122.3

WBGB Zoom In..

If you have problems with the map follow the link
https://www.worldairports.se/pages/airport.php?
ICAO=WBGB

Runways:

(A) RW 17 length 9006 ft width 148 ft
ILS 108.70 / hdg 167

(B) RW 35 length 9006 ft width 148 ft
---- / hdg 347

Location; WBGB
Day. 25 / Time. 23.00 Zulu
* QNH: 1010
* Temperature: 25° c. 77°f.
* Wind from: VRB° Speed 03 kn.
Dewpoint: 25° c.
Visibility: 8000 m.
Clouds: Few 000 ft.
Clouds: Broken 15000 ft.

WBGB 252300Z VRB03KT 8000 FEW000 BKN150 25/25 Q1010


Wind From VRB°
Speed 03 kn.

 
 
jpsmedia worldairports.se 2020   terms of use